^^
Grace C. Lehan Memorial Weather Station Historical Data
Daily Summary for March 18, 2022 Units:  Both    English   Metric
Daily Weekly Monthly Yearly
  High: Low: Average:
Temperature: 59 °F /  15 °C 36.4 °F /  2.4 °C 49.7 °F /  9.8 °C
Dew Point: 56.6 °F /  13.7 °C 19.2 °F /  -7.1 °C 42.2 °F /  5.7 °C
Humidity: 94% 49% 77%
Wind Speed: 15.7mph /  25.3km/h - 7.9mph /  12.7km/h
Wind Gust: 39mph /  62.8km/h - -
Wind- - WSW
Pressure: 29.81 in /  1009.4 hPa 29.23 in /  989.7 hPa -
Precipitation: 0.32 in /  8.13 mm    
 
 
Tabular Data for March 18, 2022
Time Temperature Dew Point Pressure Wind Wind Speed Wind Gust Humidity Rainfall Rate (Hourly) solar
00:04 56.2 °F /  13.4 °C 54.2 °F /  12.3 °C 29.57in /  1001.2hPa SSW 1.9mph /  3.1km/h 21mph /  33.8km/h 93% 0.15in /  3.81mm 0 W/m2
00:09 56.1 °F /  13.4 °C 54.1 °F /  12.3 °C 29.57in /  1001.2hPa SSW 2.7mph /  4.3km/h 14mph /  22.5km/h 93% 0.14in /  3.56mm 0 W/m2
00:14 56 °F /  13.3 °C 54.1 °F /  12.3 °C 29.57in /  1001.2hPa SSW 3mph /  4.8km/h 14mph /  22.5km/h 93.5% 0.15in /  3.81mm 0 W/m2
00:19 55.9 °F /  13.3 °C 53.9 °F /  12.2 °C 29.56in /  1000.9hPa SSW 4.5mph /  7.2km/h 16mph /  25.7km/h 93.1% 0.16in /  4.06mm 0 W/m2
00:24 55.8 °F /  13.2 °C 53.9 °F /  12.2 °C 29.56in /  1000.9hPa South 3.1mph /  5km/h 16mph /  25.7km/h 93.4% 0.16in /  4.06mm 0 W/m2
00:29 55.7 °F /  13.2 °C 54 °F /  12.2 °C 29.56in /  1000.9hPa SSW 3.8mph /  6.1km/h 16mph /  25.7km/h 94% 0.17in /  4.32mm 0 W/m2
00:34 55.6 °F /  13.1 °C 53.9 °F /  12.2 °C 29.55in /  1000.6hPa South 4mph /  6.4km/h 16mph /  25.7km/h 94% 0.17in /  4.32mm 0 W/m2
00:39 55.5 °F /  13.1 °C 53.8 °F /  12.1 °C 29.55in /  1000.6hPa SSW 4.8mph /  7.7km/h 14mph /  22.5km/h 94% 0.11in /  2.79mm 0 W/m2
00:44 55.3 °F /  12.9 °C 53.5 °F /  11.9 °C 29.53in /  999.9hPa South 4mph /  6.4km/h 14mph /  22.5km/h 93.8% 0.12in /  3.05mm 0 W/m2
00:49 55.1 °F /  12.8 °C 53.4 °F /  11.9 °C 29.53in /  999.9hPa SSW 5.8mph /  9.3km/h 14mph /  22.5km/h 94% 0.12in /  3.05mm 0 W/m2
00:54 55.1 °F /  12.8 °C 53.4 °F /  11.9 °C 29.53in /  999.9hPa South 6.9mph /  11.1km/h 15mph /  24.1km/h 94% 0.12in /  3.05mm 0 W/m2
00:59 55 °F /  12.8 °C 53.3 °F /  11.8 °C 29.52in /  999.5hPa SSW 3.4mph /  5.5km/h 15mph /  24.1km/h 94% 0.13in /  3.3mm 0 W/m2
01:04 54.9 °F /  12.7 °C 53.2 °F /  11.8 °C 29.51in /  999.2hPa South 7.1mph /  11.4km/h 15mph /  24.1km/h 94% 0.13in /  3.3mm 0 W/m2
01:09 54.8 °F /  12.7 °C 53.1 °F /  11.7 °C 29.50in /  998.9hPa SSW 4mph /  6.4km/h 15mph /  24.1km/h 94% 0.08in /  2.03mm 0 W/m2
01:14 54.8 °F /  12.7 °C 53.1 °F /  11.7 °C 29.50in /  998.9hPa SSW 5mph /  8km/h 15mph /  24.1km/h 94% 0.08in /  2.03mm 0 W/m2
01:19 54.7 °F /  12.6 °C 53 °F /  11.7 °C 29.49in /  998.5hPa South 6.8mph /  10.9km/h 17mph /  27.4km/h 94% 0.09in /  2.29mm 0 W/m2
01:24 54.6 °F /  12.6 °C 53 °F /  11.7 °C 29.49in /  998.5hPa SSW 5.3mph /  8.5km/h 17mph /  27.4km/h 94% 0.09in /  2.29mm 0 W/m2
01:29 54.6 °F /  12.6 °C 52.9 °F /  11.6 °C 29.49in /  998.5hPa South 6.7mph /  10.8km/h 19mph /  30.6km/h 94% 0.10in /  2.54mm 0 W/m2
01:34 54.6 °F /  12.6 °C 52.9 °F /  11.6 °C 29.48in /  998.2hPa SSW 3.3mph /  5.3km/h 19mph /  30.6km/h 94% 0.10in /  2.54mm 0 W/m2
01:39 54.4 °F /  12.4 °C 52.7 °F /  11.5 °C 29.47in /  997.9hPa South 5.3mph /  8.5km/h 18mph /  29km/h 94% 0.05in /  1.27mm 0 W/m2
01:44 54.3 °F /  12.4 °C 52.7 °F /  11.5 °C 29.47in /  997.9hPa SSW 4.9mph /  7.9km/h 18mph /  29km/h 94% 0.06in /  1.52mm 0 W/m2
01:49 54.3 °F /  12.4 °C 52.6 °F /  11.4 °C 29.45in /  997.2hPa South 5.1mph /  8.2km/h 18mph /  29km/h 94% 0.06in /  1.52mm 0 W/m2
01:54 54.2 °F /  12.3 °C 52.5 °F /  11.4 °C 29.45in /  997.2hPa SSW 5.3mph /  8.5km/h 18mph /  29km/h 94% 0.06in /  1.52mm 0 W/m2
01:59 54.2 °F /  12.3 °C 52.5 °F /  11.4 °C 29.44in /  996.8hPa SSW 4.5mph /  7.2km/h 18mph /  29km/h 94% 0.06in /  1.52mm 0 W/m2
02:04 54.2 °F /  12.3 °C 52.5 °F /  11.4 °C 29.44in /  996.8hPa SSW 3.4mph /  5.5km/h 18mph /  29km/h 94% 0.06in /  1.52mm 0 W/m2
02:09 54.2 °F /  12.3 °C 52.5 °F /  11.4 °C 29.43in /  996.5hPa South 5.6mph /  9km/h 14mph /  22.5km/h 94% 0.04in /  1.02mm 0 W/m2
02:14 54.3 °F /  12.4 °C 52.6 °F /  11.4 °C 29.42in /  996.2hPa South 3.2mph /  5.1km/h 14mph /  22.5km/h 94% 0.04in /  1.02mm 0 W/m2
02:19 54.2 °F /  12.3 °C 52.5 °F /  11.4 °C 29.42in /  996.2hPa SSW 3mph /  4.8km/h 14mph /  22.5km/h 94% 0.04in /  1.02mm 0 W/m2
02:24 54.2 °F /  12.3 °C 52.5 °F /  11.4 °C 29.41in /  995.8hPa SSW 2.7mph /  4.3km/h 14mph /  22.5km/h 94% 0.04in /  1.02mm 0 W/m2
02:29 54.4 °F /  12.4 °C 52.7 °F /  11.5 °C 29.41in /  995.8hPa SSW 2.4mph /  3.9km/h 14mph /  22.5km/h 94% 0.04in /  1.02mm 0 W/m2
02:34 54.6 °F /  12.6 °C 52.9 °F /  11.6 °C 29.41in /  995.8hPa SSW 5.3mph /  8.5km/h 14mph /  22.5km/h 94% 0.04in /  1.02mm 0 W/m2
02:39 54.9 °F /  12.7 °C 53.2 °F /  11.8 °C 29.39in /  995.1hPa SSW 6.5mph /  10.5km/h 15mph /  24.1km/h 94% 0.02in /  0.51mm 0 W/m2
02:44 55.1 °F /  12.8 °C 53.4 °F /  11.9 °C 29.39in /  995.1hPa SW 7.7mph /  12.4km/h 19mph /  30.6km/h 94% 0.02in /  0.51mm 0 W/m2
02:49 55.2 °F /  12.9 °C 53.6 °F /  12 °C 29.39in /  995.1hPa SSW 6mph /  9.7km/h 19mph /  30.6km/h 94% 0.03in /  0.76mm 0 W/m2
02:54 55.3 °F /  12.9 °C 53.7 °F /  12.1 °C 29.39in /  995.1hPa SW 8mph /  12.9km/h 21mph /  33.8km/h 94% 0.04in /  1.02mm 0 W/m2
02:59 55.4 °F /  13 °C 53.7 °F /  12.1 °C 29.39in /  995.1hPa SSW 5.6mph /  9km/h 21mph /  33.8km/h 94% 0.05in /  1.27mm 0 W/m2
03:04 55.5 °F /  13.1 °C 53.8 °F /  12.1 °C 29.38in /  994.8hPa SSW 8.3mph /  13.4km/h 21mph /  33.8km/h 94% 0.05in /  1.27mm 0 W/m2
03:09 55.5 °F /  13.1 °C 53.8 °F /  12.1 °C 29.38in /  994.8hPa SSW 7.4mph /  11.9km/h 21mph /  33.8km/h 94% 0.04in /  1.02mm 0 W/m2
03:14 55.6 °F /  13.1 °C 53.9 °F /  12.2 °C 29.37in /  994.5hPa SSW 4mph /  6.4km/h 21mph /  33.8km/h 94% 0.04in /  1.02mm 0 W/m2
03:19 55.6 °F /  13.1 °C 53.9 °F /  12.2 °C 29.36in /  994.1hPa SSW 8mph /  12.9km/h 21mph /  33.8km/h 94% 0.04in /  1.02mm 0 W/m2
03:24 55.7 °F /  13.2 °C 54 °F /  12.2 °C 29.36in /  994.1hPa SSW 9mph /  14.5km/h 27mph /  43.5km/h 94% 0.04in /  1.02mm 0 W/m2
03:29 55.7 °F /  13.2 °C 53.8 °F /  12.1 °C 29.36in /  994.1hPa SW 7.5mph /  12.1km/h 27mph /  43.5km/h 93.2% 0.04in /  1.02mm 0 W/m2
03:34 55.7 °F /  13.2 °C 53.7 °F /  12.1 °C 29.36in /  994.1hPa SW 5.8mph /  9.3km/h 27mph /  43.5km/h 93% 0.04in /  1.02mm 0 W/m2
03:39 55.8 °F /  13.2 °C 53.8 °F /  12.1 °C 29.35in /  993.8hPa SW 5.7mph /  9.2km/h 18mph /  29km/h 93% 0.04in /  1.02mm 0 W/m2
03:44 55.8 °F /  13.2 °C 53.8 °F /  12.1 °C 29.35in /  993.8hPa SSW 6.6mph /  10.6km/h 19mph /  30.6km/h 93% 0.04in /  1.02mm 0 W/m2
03:49 56 °F /  13.3 °C 54 °F /  12.2 °C 29.34in /  993.5hPa SW 7mph /  11.3km/h 19mph /  30.6km/h 93% 0.04in /  1.02mm 0 W/m2
03:54 56.1 °F /  13.4 °C 54.1 °F /  12.3 °C 29.34in /  993.5hPa SW 7mph /  11.3km/h 24mph /  38.6km/h 93% 0.04in /  1.02mm 0 W/m2
03:59 56.2 °F /  13.4 °C 54.2 °F /  12.3 °C 29.33in /  993.1hPa SW 7.5mph /  12.1km/h 24mph /  38.6km/h 93% 0.04in /  1.02mm 0 W/m2
04:00 56.2 °F /  13.4 °C 54.2 °F /  12.3 °C 29.33in /  993.1hPa SW 2.5mph /  4km/h 24mph /  38.6km/h 93% 0.04in /  1.02mm 0 W/m2
04:09 56.4 °F /  13.6 °C 54.4 °F /  12.4 °C 29.33in /  993.1hPa SW 8.8mph /  14.2km/h 21mph /  33.8km/h 93% 0.00in /  0mm 0 W/m2
04:14 56.5 °F /  13.6 °C 54.5 °F /  12.5 °C 29.33in /  993.1hPa SSW 7.6mph /  12.2km/h 21mph /  33.8km/h 93% 0.00in /  0mm 0 W/m2
04:19 56.6 °F /  13.7 °C 54.6 °F /  12.6 °C 29.32in /  992.8hPa SW 9.3mph /  15km/h 21mph /  33.8km/h 93% 0.00in /  0mm 0 W/m2
04:24 56.8 °F /  13.8 °C 54.8 °F /  12.7 °C 29.32in /  992.8hPa SW 6.4mph /  10.3km/h 21mph /  33.8km/h 93% 0.00in /  0mm 0 W/m2
04:29 57 °F /  13.9 °C 55 °F /  12.8 °C 29.31in /  992.4hPa SSW 7.9mph /  12.7km/h 21mph /  33.8km/h 93% 0.00in /  0mm 0 W/m2
04:34 57.2 °F /  14 °C 55.2 °F /  12.9 °C 29.31in /  992.4hPa SW 8mph /  12.9km/h 21mph /  33.8km/h 93% 0.00in /  0mm 0 W/m2
04:39 57.3 °F /  14.1 °C 55.3 °F /  12.9 °C 29.30in /  992.1hPa SW 5.1mph /  8.2km/h 17mph /  27.4km/h 93% 0.00in /  0mm 0 W/m2
04:44 57.3 °F /  14.1 °C 55.3 °F /  12.9 °C 29.30in /  992.1hPa SW 8.4mph /  13.5km/h 20mph /  32.2km/h 93% 0.01in /  0.25mm 0 W/m2
04:49 57.4 °F /  14.1 °C 55.6 °F /  13.1 °C 29.30in /  992.1hPa SSW 5.6mph /  9km/h 20mph /  32.2km/h 93.8% 0.01in /  0.25mm 0 W/m2
04:54 57.4 °F /  14.1 °C 55.7 °F /  13.2 °C 29.29in /  991.8hPa SW 6.3mph /  10.1km/h 20mph /  32.2km/h 94% 0.01in /  0.25mm 0 W/m2
04:59 57.5 °F /  14.2 °C 55.8 °F /  13.2 °C 29.28in /  991.4hPa SW 6.8mph /  10.9km/h 21mph /  33.8km/h 94% 0.01in /  0.25mm 0 W/m2
05:04 57.7 °F /  14.3 °C 56 °F /  13.3 °C 29.28in /  991.4hPa SSW 3.9mph /  6.3km/h 21mph /  33.8km/h 94% 0.01in /  0.25mm 0 W/m2
05:09 57.8 °F /  14.3 °C 56.1 °F /  13.4 °C 29.29in /  991.8hPa SSW 5.7mph /  9.2km/h 18mph /  29km/h 94% 0.01in /  0.25mm 0 W/m2
05:14 58 °F /  14.4 °C 56.3 °F /  13.5 °C 29.28in /  991.4hPa SSW 6.3mph /  10.1km/h 19mph /  30.6km/h 94% 0.01in /  0.25mm 0 W/m2
05:19 58.2 °F /  14.6 °C 56.5 °F /  13.6 °C 29.28in /  991.4hPa SW 6.9mph /  11.1km/h 21mph /  33.8km/h 94% 0.01in /  0.25mm 0 W/m2
05:24 58.3 °F /  14.6 °C 56.4 °F /  13.6 °C 29.27in /  991.1hPa SSW 6.6mph /  10.6km/h 21mph /  33.8km/h 93.4% 0.01in /  0.25mm 0 W/m2
05:29 58.5 °F /  14.7 °C 56.5 °F /  13.6 °C 29.26in /  990.7hPa SSW 6.8mph /  10.9km/h 27mph /  43.5km/h 93% 0.01in /  0.25mm 0 W/m2
05:34 58.6 °F /  14.8 °C 56.6 °F /  13.7 °C 29.26in /  990.7hPa SW 7.9mph /  12.7km/h 27mph /  43.5km/h 93% 0.01in /  0.25mm 0 W/m2
05:39 58.7 °F /  14.8 °C 56.5 °F /  13.6 °C 29.26in /  990.7hPa SSW 7.4mph /  11.9km/h 22mph /  35.4km/h 92.4% 0.01in /  0.25mm 0 W/m2
05:44 58.8 °F /  14.9 °C 56.5 °F /  13.6 °C 29.26in /  990.7hPa SW 7.9mph /  12.7km/h 27mph /  43.5km/h 92% 0.01in /  0.25mm 0 W/m2
05:49 58.9 °F /  14.9 °C 56.6 °F /  13.7 °C 29.25in /  990.4hPa SW 7.7mph /  12.4km/h 27mph /  43.5km/h 92% 0.01in /  0.25mm 0 W/m2
05:54 58.9 °F /  14.9 °C 56.6 °F /  13.7 °C 29.25in /  990.4hPa SW 7.1mph /  11.4km/h 27mph /  43.5km/h 92% 0.01in /  0.25mm 0 W/m2
05:59 58.9 °F /  14.9 °C 56.6 °F /  13.7 °C 29.25in /  990.4hPa SSW 4.6mph /  7.4km/h 27mph /  43.5km/h 92% 0.01in /  0.25mm 0 W/m2
06:04 58.8 °F /  14.9 °C 56.5 °F /  13.6 °C 29.24in /  990.1hPa SSW 5.7mph /  9.2km/h 27mph /  43.5km/h 92% 0.01in /  0.25mm 0 W/m2
06:09 58.8 °F /  14.9 °C 56.5 °F /  13.6 °C 29.24in /  990.1hPa SSW 5.3mph /  8.5km/h 18mph /  29km/h 92% 0.00in /  0mm 0 W/m2
06:14 58.8 °F /  14.9 °C 56.4 °F /  13.6 °C 29.24in /  990.1hPa SSW 4.7mph /  7.6km/h 18mph /  29km/h 92% 0.00in /  0mm 0 W/m2
06:19 58.7 °F /  14.8 °C 56.1 °F /  13.4 °C 29.24in /  990.1hPa SSW 5.3mph /  8.5km/h 23mph /  37km/h 91% 0.00in /  0mm 0 W/m2
06:24 58.7 °F /  14.8 °C 56.1 °F /  13.4 °C 29.24in /  990.1hPa SSW 5.7mph /  9.2km/h 23mph /  37km/h 91% 0.00in /  0mm 0 W/m2
06:34 58.8 °F /  14.9 °C 56.2 °F /  13.4 °C 29.23in /  989.7hPa SSW 8mph /  12.9km/h 19mph /  30.6km/h 91% 0.00in /  0mm 0 W/m2
06:39 58.8 °F /  14.9 °C 56.2 °F /  13.4 °C 29.24in /  990.1hPa SW 6.7mph /  10.8km/h 19mph /  30.6km/h 91% 0.00in /  0mm 0 W/m2
06:44 58.9 °F /  14.9 °C 56.3 °F /  13.5 °C 29.24in /  990.1hPa SW 6.6mph /  10.6km/h 19mph /  30.6km/h 91% 0.00in /  0mm 0 W/m2
06:49 58.9 °F /  14.9 °C 56.3 °F /  13.5 °C 29.24in /  990.1hPa SW 7.5mph /  12.1km/h 20mph /  32.2km/h 91% 0.00in /  0mm 0 W/m2
06:54 59 °F /  15 °C 56.4 °F /  13.6 °C 29.25in /  990.4hPa SW 3.4mph /  5.5km/h 20mph /  32.2km/h 91% 0.00in /  0mm 0 W/m2
06:59 58.9 °F /  14.9 °C 56.4 °F /  13.6 °C 29.27in /  991.1hPa SW 3.6mph /  5.8km/h 20mph /  32.2km/h 91.3% 0.02in /  0.51mm 0 W/m2
07:04 58.9 °F /  14.9 °C 56.6 °F /  13.7 °C 29.30in /  992.1hPa WNW 4.2mph /  6.8km/h 20mph /  32.2km/h 92% 0.02in /  0.51mm 0 W/m2
07:09 58.8 °F /  14.9 °C 56.5 °F /  13.6 °C 29.30in /  992.1hPa West 3.6mph /  5.8km/h 14mph /  22.5km/h 92% 0.14in /  3.56mm 0 W/m2
07:14 58.7 °F /  14.8 °C 56.4 °F /  13.6 °C 29.30in /  992.1hPa West 0.9mph /  1.4km/h 14mph /  22.5km/h 92% 0.16in /  4.06mm 0 W/m2
07:19 58.5 °F /  14.7 °C 56.5 °F /  13.6 °C 29.31in /  992.4hPa WSW 2.9mph /  4.7km/h 16mph /  25.7km/h 93% 0.16in /  4.06mm 0 W/m2
07:24 58.2 °F /  14.6 °C 56.1 °F /  13.4 °C 29.31in /  992.4hPa West 4.3mph /  6.9km/h 17mph /  27.4km/h 92.6% 0.16in /  4.06mm 7 W/m2
07:29 57.6 °F /  14.2 °C 55.3 °F /  12.9 °C 29.32in /  992.8hPa WSW 4.2mph /  6.8km/h 17mph /  27.4km/h 92% 0.16in /  4.06mm 9 W/m2
07:34 56.9 °F /  13.8 °C 54.1 °F /  12.3 °C 29.32in /  992.8hPa West 8.7mph /  14km/h 19mph /  30.6km/h 90.2% 0.16in /  4.06mm 5 W/m2
07:39 56.2 °F /  13.4 °C 52.7 °F /  11.5 °C 29.34in /  993.5hPa West 6.6mph /  10.6km/h 19mph /  30.6km/h 87.7% 0.14in /  3.56mm 0 W/m2
07:41 55.9 °F /  13.3 °C 52 °F /  11.1 °C 29.34in /  993.5hPa WSW 4.6mph /  7.4km/h 19mph /  30.6km/h 86.7% 0.14in /  3.56mm 0 W/m2
07:49 55.1 °F /  12.8 °C 50.4 °F /  10.2 °C 29.34in /  993.5hPa WSW 6.2mph /  10km/h 19mph /  30.6km/h 84% 0.14in /  3.56mm 12 W/m2
07:54 55 °F /  12.8 °C 50 °F /  10 °C 29.34in /  993.5hPa WSW 3.4mph /  5.5km/h 19mph /  30.6km/h 83.5% 0.14in /  3.56mm 19 W/m2
07:58 54.7 °F /  12.6 °C 49.6 °F /  9.8 °C 29.34in /  993.5hPa WSW 3.8mph /  6.1km/h 19mph /  30.6km/h 83% 0.14in /  3.56mm 23 W/m2
08:04 54.4 °F /  12.4 °C 49.2 °F /  9.6 °C 29.34in /  993.5hPa WSW 6mph /  9.7km/h 13mph /  20.9km/h 82.7% 0.14in /  3.56mm 39 W/m2
08:09 54.3 °F /  12.4 °C 48.9 °F /  9.4 °C 29.35in /  993.8hPa WSW 2.9mph /  4.7km/h 13mph /  20.9km/h 82% 0.14in /  3.56mm 98 W/m2
08:14 54.2 °F /  12.3 °C 48.8 °F /  9.3 °C 29.37in /  994.5hPa West 1.8mph /  2.9km/h 13mph /  20.9km/h 82% 0.14in /  3.56mm 105 W/m2
08:16 54.3 °F /  12.4 °C 48.9 °F /  9.4 °C 29.37in /  994.5hPa West 4.7mph /  7.6km/h 15mph /  24.1km/h 82% 0.14in /  3.56mm 70 W/m2
08:44 49.6 °F /  9.8 °C 41.4 °F /  5.2 °C 29.44in /  996.8hPa NW 9.5mph /  15.3km/h 20mph /  32.2km/h 73.3% 0.14in /  3.56mm 25 W/m2
08:49 48.8 °F /  9.3 °C 40.2 °F /  4.6 °C 29.45in /  997.2hPa WNW 13.2mph /  21.2km/h 21mph /  33.8km/h 72% 0.14in /  3.56mm 30 W/m2
08:54 48 °F /  8.9 °C 38.8 °F /  3.8 °C 29.45in /  997.2hPa WNW 13.8mph /  22.2km/h 23mph /  37km/h 70.3% 0.14in /  3.56mm 33 W/m2
08:59 47.3 °F /  8.5 °C 37.8 °F /  3.2 °C 29.46in /  997.5hPa WNW 10.2mph /  16.4km/h 25mph /  40.2km/h 69.5% 0.14in /  3.56mm 77 W/m2
09:04 46.9 °F /  8.3 °C 37.6 °F /  3.1 °C 29.46in /  997.5hPa WNW 7.8mph /  12.6km/h 25mph /  40.2km/h 70% 0.14in /  3.56mm 98 W/m2
09:09 46.5 °F /  8.1 °C 37.4 °F /  3 °C 29.46in /  997.5hPa WNW 8.8mph /  14.2km/h 18mph /  29km/h 70.1% 0.00in /  0mm 158 W/m2
09:14 46.4 °F /  8 °C 37.5 °F /  3.1 °C 29.46in /  997.5hPa WNW 9mph /  14.5km/h 19mph /  30.6km/h 70.8% 0.00in /  0mm 155 W/m2
09:19 46.3 °F /  7.9 °C 36.7 °F /  2.6 °C 29.48in /  998.2hPa WNW 9.6mph /  15.4km/h 20mph /  32.2km/h 69.2% 0.00in /  0mm 141 W/m2
09:24 46.1 °F /  7.8 °C 36.5 °F /  2.5 °C 29.48in /  998.2hPa WNW 11.3mph /  18.2km/h 26mph /  41.8km/h 69% 0.00in /  0mm 185 W/m2
09:29 45.8 °F /  7.7 °C 36.1 °F /  2.3 °C 29.50in /  998.9hPa WNW 9.1mph /  14.6km/h 26mph /  41.8km/h 68.5% 0.00in /  0mm 146 W/m2
09:34 45.5 °F /  7.5 °C 35.5 °F /  1.9 °C 29.51in /  999.2hPa WNW 15.1mph /  24.3km/h 27mph /  43.5km/h 68% 0.00in /  0mm 163 W/m2
09:39 45.1 °F /  7.3 °C 35 °F /  1.7 °C 29.53in /  999.9hPa WNW 13.4mph /  21.6km/h 27mph /  43.5km/h 67.3% 0.00in /  0mm 190 W/m2
09:44 45.1 °F /  7.3 °C 34.8 °F /  1.6 °C 29.53in /  999.9hPa WNW 13.2mph /  21.2km/h 27mph /  43.5km/h 67% 0.00in /  0mm 649 W/m2
09:49 45.4 °F /  7.4 °C 34.5 °F /  1.4 °C 29.54in /  1000.2hPa WNW 12.3mph /  19.8km/h 33mph /  53.1km/h 65.3% 0.00in /  0mm 635 W/m2
09:54 45.8 °F /  7.7 °C 34.7 °F /  1.5 °C 29.56in /  1000.9hPa NW 11.1mph /  17.9km/h 33mph /  53.1km/h 65.1% 0.00in /  0mm 635 W/m2
09:59 45.9 °F /  7.7 °C 34 °F /  1.1 °C 29.57in /  1001.2hPa WNW 13.8mph /  22.2km/h 33mph /  53.1km/h 62.9% 0.00in /  0mm 568 W/m2
10:04 45.5 °F /  7.5 °C 32.9 °F /  0.5 °C 29.57in /  1001.2hPa NW 12.2mph /  19.6km/h 33mph /  53.1km/h 61.3% 0.00in /  0mm 573 W/m2
10:09 45.1 °F /  7.3 °C 33.1 °F /  0.6 °C 29.58in /  1001.6hPa NW 8.4mph /  13.5km/h 23mph /  37km/h 62.6% 0.00in /  0mm 587 W/m2
10:14 44.9 °F /  7.2 °C 32.7 °F /  0.4 °C 29.60in /  1002.3hPa NW 11.6mph /  18.7km/h 23mph /  37km/h 62.1% 0.00in /  0mm 592 W/m2
10:19 44.3 °F /  6.8 °C 31.2 °F /  -0.4 °C 29.60in /  1002.3hPa NW 15.6mph /  25.1km/h 29mph /  46.7km/h 59.8% 0.00in /  0mm 628 W/m2
10:24 43.6 °F /  6.4 °C 30.8 °F /  -0.7 °C 29.61in /  1002.6hPa NW 13.3mph /  21.4km/h 29mph /  46.7km/h 60.5% 0.00in /  0mm 628 W/m2
10:29 43.3 °F /  6.3 °C 30.6 °F /  -0.8 °C 29.61in /  1002.6hPa NW 10.5mph /  16.9km/h 29mph /  46.7km/h 60.6% 0.00in /  0mm 619 W/m2
10:34 43.4 °F /  6.3 °C 31.1 °F /  -0.5 °C 29.61in /  1002.6hPa NW 9.3mph /  15km/h 29mph /  46.7km/h 61.6% 0.00in /  0mm 606 W/m2
10:39 43.8 °F /  6.6 °C 31.9 °F /  -0.1 °C 29.61in /  1002.6hPa NW 5.5mph /  8.9km/h 17mph /  27.4km/h 62.6% 0.00in /  0mm 350 W/m2
10:44 44.2 °F /  6.8 °C 31.6 °F /  -0.2 °C 29.62in /  1002.9hPa WNW 12.2mph /  19.6km/h 27mph /  43.5km/h 60.9% 0.00in /  0mm 415 W/m2
10:49 44 °F /  6.7 °C 30.8 °F /  -0.7 °C 29.63in /  1003.3hPa NW 9.6mph /  15.4km/h 27mph /  43.5km/h 59.5% 0.00in /  0mm 415 W/m2
10:54 43.8 °F /  6.6 °C 30.4 °F /  -0.9 °C 29.64in /  1003.6hPa NW 11.9mph /  19.2km/h 27mph /  43.5km/h 58.8% 0.00in /  0mm 485 W/m2
10:59 43.7 °F /  6.5 °C 30.5 °F /  -0.8 °C 29.64in /  1003.6hPa NW 6.8mph /  10.9km/h 27mph /  43.5km/h 59.3% 0.00in /  0mm 323 W/m2
11:04 43.8 °F /  6.6 °C 29.9 °F /  -1.2 °C 29.65in /  1003.9hPa NW 13mph /  20.9km/h 27mph /  43.5km/h 57.9% 0.00in /  0mm 526 W/m2
11:09 43.4 °F /  6.3 °C 29.5 °F /  -1.4 °C 29.66in /  1004.3hPa NW 12.4mph /  20km/h 29mph /  46.7km/h 57.7% 0.00in /  0mm 656 W/m2
11:14 42.9 °F /  6.1 °C 28.6 °F /  -1.9 °C 29.66in /  1004.3hPa NW 12.7mph /  20.4km/h 30mph /  48.3km/h 56.9% 0.00in /  0mm 656 W/m2
11:19 42.2 °F /  5.7 °C 27.9 °F /  -2.3 °C 29.67in /  1004.6hPa NW 13.9mph /  22.4km/h 33mph /  53.1km/h 56.7% 0.00in /  0mm 670 W/m2
11:24 41.6 °F /  5.3 °C 27.9 °F /  -2.3 °C 29.67in /  1004.6hPa NW 9.3mph /  15km/h 33mph /  53.1km/h 57.9% 0.00in /  0mm 330 W/m2
11:29 41.4 °F /  5.2 °C 27.7 °F /  -2.4 °C 29.68in /  1005hPa WNW 12.6mph /  20.3km/h 33mph /  53.1km/h 58% 0.00in /  0mm 297 W/m2
11:34 41.3 °F /  5.2 °C 27.4 °F /  -2.6 °C 29.68in /  1005hPa NW 13mph /  20.9km/h 33mph /  53.1km/h 57.5% 0.00in /  0mm 281 W/m2
11:39 41.2 °F /  5.1 °C 27.2 °F /  -2.7 °C 29.69in /  1005.3hPa WNW 14.4mph /  23.2km/h 33mph /  53.1km/h 57.3% 0.00in /  0mm 281 W/m2
11:44 40.7 °F /  4.8 °C 26.1 °F /  -3.3 °C 29.69in /  1005.3hPa NW 15.7mph /  25.3km/h 39mph /  62.8km/h 55.6% 0.00in /  0mm 281 W/m2
11:49 40.2 °F /  4.6 °C 26 °F /  -3.3 °C 29.70in /  1005.6hPa NW 9.7mph /  15.6km/h 39mph /  62.8km/h 56.7% 0.00in /  0mm 176 W/m2
11:54 40.2 °F /  4.6 °C 26.2 °F /  -3.2 °C 29.71in /  1006hPa NW 13mph /  20.9km/h 39mph /  62.8km/h 57.1% 0.00in /  0mm 206 W/m2
11:58 40.2 °F /  4.6 °C 26.1 °F /  -3.3 °C 29.71in /  1006hPa NW 11.9mph /  19.2km/h 39mph /  62.8km/h 56.8% 0.00in /  0mm 206 W/m2
12:04 40 °F /  4.4 °C 25.4 °F /  -3.7 °C 29.71in /  1006hPa NW 11.4mph /  18.3km/h 18mph /  29km/h 55.7% 0.00in /  0mm 183 W/m2
12:09 40 °F /  4.4 °C 25.8 °F /  -3.4 °C 29.71in /  1006hPa NW 9.7mph /  15.6km/h 22mph /  35.4km/h 56.5% 0.00in /  0mm 267 W/m2
12:14 40 °F /  4.4 °C 25.7 °F /  -3.5 °C 29.71in /  1006hPa NW 14.2mph /  22.9km/h 27mph /  43.5km/h 56.2% 0.00in /  0mm 221 W/m2
12:19 39.8 °F /  4.3 °C 24.9 °F /  -3.9 °C 29.71in /  1006hPa NW 12.8mph /  20.6km/h 27mph /  43.5km/h 54.8% 0.00in /  0mm 81 W/m2
12:24 39.6 °F /  4.2 °C 24.6 °F /  -4.1 °C 29.71in /  1006hPa NW 13.5mph /  21.7km/h 27mph /  43.5km/h 54.7% 0.00in /  0mm 134 W/m2
12:29 39.5 °F /  4.2 °C 24.7 °F /  -4.1 °C 29.71in /  1006hPa NW 11.2mph /  18km/h 27mph /  43.5km/h 55% 0.00in /  0mm 243 W/m2
12:34 39.5 °F /  4.2 °C 24.5 °F /  -4.2 °C 29.72in /  1006.3hPa WNW 10.8mph /  17.4km/h 27mph /  43.5km/h 54.6% 0.00in /  0mm 169 W/m2
12:39 39.6 °F /  4.2 °C 24.4 °F /  -4.2 °C 29.72in /  1006.3hPa WNW 10.6mph /  17.1km/h 20mph /  32.2km/h 54.3% 0.00in /  0mm 274 W/m2
12:44 39.7 °F /  4.3 °C 24.8 °F /  -4 °C 29.72in /  1006.3hPa WNW 9.2mph /  14.8km/h 20mph /  32.2km/h 54.8% 0.00in /  0mm 499 W/m2
12:49 39.9 °F /  4.4 °C 24.9 °F /  -3.9 °C 29.72in /  1006.3hPa NW 10.5mph /  16.9km/h 20mph /  32.2km/h 54.5% 0.00in /  0mm 253 W/m2
12:54 40 °F /  4.4 °C 24.5 °F /  -4.2 °C 29.72in /  1006.3hPa NW 12.6mph /  20.3km/h 25mph /  40.2km/h 53.6% 0.00in /  0mm 304 W/m2
12:59 39.6 °F /  4.2 °C 23.7 °F /  -4.6 °C 29.72in /  1006.3hPa WNW 12.9mph /  20.8km/h 25mph /  40.2km/h 52.6% 0.00in /  0mm 167 W/m2
13:04 39.4 °F /  4.1 °C 23.8 °F /  -4.6 °C 29.73in /  1006.7hPa NW 12mph /  19.3km/h 25mph /  40.2km/h 53.2% 0.00in /  0mm 504 W/m2
13:09 39.5 °F /  4.2 °C 23.7 °F /  -4.6 °C 29.73in /  1006.7hPa NW 8.6mph /  13.8km/h 23mph /  37km/h 52.8% 0.00in /  0mm 504 W/m2
13:14 39.8 °F /  4.3 °C 24.1 °F /  -4.4 °C 29.73in /  1006.7hPa NW 9.1mph /  14.6km/h 23mph /  37km/h 53% 0.00in /  0mm 269 W/m2
13:19 40 °F /  4.4 °C 23.8 °F /  -4.6 °C 29.74in /  1007hPa NW 10mph /  16.1km/h 25mph /  40.2km/h 51.9% 0.00in /  0mm 251 W/m2
13:24 40 °F /  4.4 °C 23.6 °F /  -4.7 °C 29.75in /  1007.3hPa WNW 12.4mph /  20km/h 28mph /  45.1km/h 51.5% 0.00in /  0mm 171 W/m2
13:29 39.6 °F /  4.2 °C 22.9 °F /  -5.1 °C 29.75in /  1007.3hPa WNW 10.7mph /  17.2km/h 28mph /  45.1km/h 50.9% 0.00in /  0mm 274 W/m2
13:34 39.3 °F /  4.1 °C 23.3 °F /  -4.8 °C 29.76in /  1007.7hPa NW 8.9mph /  14.3km/h 28mph /  45.1km/h 52.2% 0.00in /  0mm 123 W/m2
13:39 39.4 °F /  4.1 °C 23.4 °F /  -4.8 °C 29.76in /  1007.7hPa NNW 9.3mph /  15km/h 22mph /  35.4km/h 52.3% 0.00in /  0mm 156 W/m2
13:44 39.3 °F /  4.1 °C 23.2 °F /  -4.9 °C 29.76in /  1007.7hPa NNW 8.3mph /  13.4km/h 22mph /  35.4km/h 52.2% 0.00in /  0mm 237 W/m2
13:49 39.3 °F /  4.1 °C 23.3 °F /  -4.8 °C 29.76in /  1007.7hPa NW 11.4mph /  18.3km/h 22mph /  35.4km/h 52.3% 0.00in /  0mm 376 W/m2
13:54 39.2 °F /  4 °C 22.9 °F /  -5.1 °C 29.76in /  1007.7hPa NW 8.8mph /  14.2km/h 22mph /  35.4km/h 51.5% 0.00in /  0mm 411 W/m2
13:59 39.1 °F /  3.9 °C 22.6 °F /  -5.2 °C 29.76in /  1007.7hPa NW 9.4mph /  15.1km/h 22mph /  35.4km/h 51.2% 0.00in /  0mm 162 W/m2
14:04 38.9 °F /  3.8 °C 22.8 °F /  -5.1 °C 29.76in /  1007.7hPa NNW 8.1mph /  13km/h 22mph /  35.4km/h 51.9% 0.00in /  0mm 171 W/m2
14:09 38.8 °F /  3.8 °C 22.6 °F /  -5.2 °C 29.77in /  1008hPa NW 10.4mph /  16.7km/h 19mph /  30.6km/h 51.8% 0.00in /  0mm 211 W/m2
14:14 38.7 °F /  3.7 °C 22.3 °F /  -5.4 °C 29.77in /  1008hPa NW 11.4mph /  18.3km/h 27mph /  43.5km/h 51.3% 0.00in /  0mm 165 W/m2
14:19 38.4 °F /  3.6 °C 22.1 °F /  -5.5 °C 29.77in /  1008hPa NW 11.6mph /  18.7km/h 27mph /  43.5km/h 51.5% 0.00in /  0mm 165 W/m2
14:24 38.3 °F /  3.5 °C 22.2 °F /  -5.4 °C 29.77in /  1008hPa NW 8.7mph /  14km/h 27mph /  43.5km/h 52% 0.00in /  0mm 290 W/m2
14:29 38.1 °F /  3.4 °C 22.1 °F /  -5.5 °C 29.78in /  1008.4hPa NW 4.7mph /  7.6km/h 27mph /  43.5km/h 52.1% 0.00in /  0mm 290 W/m2
14:34 38.3 °F /  3.5 °C 22.7 °F /  -5.2 °C 29.78in /  1008.4hPa NW 4.4mph /  7.1km/h 27mph /  43.5km/h 53% 0.00in /  0mm 185 W/m2
14:39 38.6 °F /  3.7 °C 23.1 °F /  -4.9 °C 29.78in /  1008.4hPa NW 6.5mph /  10.5km/h 20mph /  32.2km/h 53.3% 0.00in /  0mm 162 W/m2
14:44 38.8 °F /  3.8 °C 22.4 °F /  -5.3 °C 29.78in /  1008.4hPa NW 9.1mph /  14.6km/h 20mph /  32.2km/h 51.5% 0.00in /  0mm 424 W/m2
14:49 38.6 °F /  3.7 °C 22.3 °F /  -5.4 °C 29.78in /  1008.4hPa NW 7.3mph /  11.7km/h 20mph /  32.2km/h 51.5% 0.00in /  0mm 489 W/m2
14:54 38.7 °F /  3.7 °C 22.2 °F /  -5.4 °C 29.79in /  1008.7hPa NW 11.4mph /  18.3km/h 23mph /  37km/h 51.3% 0.00in /  0mm 504 W/m2
14:59 38.4 °F /  3.6 °C 21.4 °F /  -5.9 °C 29.80in /  1009hPa NW 9.7mph /  15.6km/h 23mph /  37km/h 50% 0.00in /  0mm 494 W/m2
15:04 37.9 °F /  3.3 °C 20.9 °F /  -6.2 °C 29.79in /  1008.7hPa NW 9.8mph /  15.8km/h 23mph /  37km/h 50% 0.00in /  0mm 450 W/m2
15:09 37.3 °F /  2.9 °C 20.1 °F /  -6.6 °C 29.80in /  1009hPa NW 11.3mph /  18.2km/h 25mph /  40.2km/h 49.2% 0.00in /  0mm 37 W/m2
15:14 36.9 °F /  2.7 °C 19.7 °F /  -6.8 °C 29.81in /  1009.4hPa NW 12.1mph /  19.5km/h 26mph /  41.8km/h 49.3% 0.00in /  0mm 33 W/m2
15:19 36.6 °F /  2.6 °C 19.3 °F /  -7.1 °C 29.81in /  1009.4hPa NW 11.9mph /  19.2km/h 26mph /  41.8km/h 49% 0.00in /  0mm 32 W/m2
15:23 36.4 °F /  2.4 °C 19.2 °F /  -7.1 °C 29.81in /  1009.4hPa NW 8.9mph /  14.3km/h 26mph /  41.8km/h 49.3% 0.00in /  0mm 32 W/m2
Hartford County Weather
Compliments of Weather Underground - 4 mb